Time;durP1;ratioP1;P1;durP2;ratioP2;P2;SDS_P1;SDS_P2;PMS_P1;PMS_P2;Temp;Humidity;BMP_temperature;BMP_pressure;BME280_temperature;BME280_humidity;BME280_pressure;Samples;Min_cycle;Max_cycle;Signal;HPM_P1;HPM_P2
2022/01/12 00:01:05;;;;;;;35.83;15.20;;;;;;;;;;5095697;28;20171;-62
2022/01/12 00:03:34;;;;;;;82.28;18.48;;;;;;;;;;5094853;28;20606;-63
2022/01/12 00:06:01;;;;;;;45.60;16.60;;;;;;;;;;5094879;28;20555;-62
2022/01/12 00:08:27;;;;;;;41.33;17.63;;;;;;;;;;5095370;28;20170;-62
2022/01/12 00:10:56;;;;;;;138.80;18.27;;;;;;;;;;5095283;28;20171;-63
2022/01/12 00:13:22;;;;;;;70.25;17.10;;;;;;;;;;5095231;28;20179;-63
2022/01/12 00:15:48;;;;;;;52.17;15.73;;;;;;;;;;5095119;28;20701;-61
2022/01/12 00:18:14;;;;;;;110.37;17.40;;;;;;;;;;5095096;28;20455;-61
2022/01/12 00:20:40;;;;;;;82.80;16.00;;;;;;;;;;5095091;28;20433;-62
2022/01/12 00:23:06;;;;;;;110.85;17.55;;;;;;;;;;5095048;28;20393;-62
2022/01/12 00:25:45;;;;;;;276.73;20.97;;;;;;;;;;5095057;28;20705;-62
2022/01/12 00:33:41;;;;;;;90.53;17.55;;;;;;;;;;5094940;28;20560;-62
2022/01/12 00:36:07;;;;;;;121.27;16.90;;;;;;;;;;5094810;28;20168;-61
2022/01/12 00:38:33;;;;;;;51.63;15.70;;;;;;;;;;5094940;28;20933;-62
2022/01/12 00:40:59;;;;;;;128.32;18.15;;;;;;;;;;5094971;28;20483;-61
2022/01/12 00:43:28;;;;;;;140.23;17.02;;;;;;;;;;5094658;28;20173;-61
2022/01/12 00:45:55;;;;;;;46.05;14.82;;;;;;;;;;5094723;28;20206;-61
2022/01/12 00:48:21;;;;;;;62.60;16.13;;;;;;;;;;5094887;28;20178;-62
2022/01/12 00:50:47;;;;;;;63.00;14.95;;;;;;;;;;5094496;28;20618;-61
2022/01/12 00:53:14;;;;;;;86.70;15.30;;;;;;;;;;5094562;28;20171;-62
2022/01/12 00:55:41;;;;;;;32.33;14.05;;;;;;;;;;5094515;28;20159;-64
2022/01/12 00:58:07;;;;;;;53.70;14.65;;;;;;;;;;5094798;28;20214;-64
2022/01/12 01:00:33;;;;;;;43.50;13.50;;;;;;;;;;5094564;28;20175;-65
2022/01/12 01:02:59;;;;;;;77.30;15.70;;;;;;;;;;5094461;28;20953;-64
2022/01/12 01:05:27;;;;;;;124.25;16.65;;;;;;;;;;5094493;28;20194;-64
2022/01/12 01:07:53;;;;;;;137.48;15.70;;;;;;;;;;5094522;28;20273;-63
2022/01/12 01:13:23;;;;;;;88.78;15.05;;;;;;;;;;5071008;28;20566;-63
2022/01/12 01:26:30;;;;;;;40.08;12.10;;;;;;;;;;5093983;28;20213;-67
2022/01/12 01:28:55;;;;;;;32.40;13.70;;;;;;;;;;5093861;28;20570;-62
2022/01/12 01:31:28;;;;;;;35.23;14.13;;;;;;;;;;5093929;28;20167;-63
2022/01/12 01:33:54;;;;;;;147.13;16.98;;;;;;;;;;5092804;28;20425;-63
2022/01/12 01:36:21;;;;;;;147.18;15.98;;;;;;;;;;5093917;28;20622;-62
2022/01/12 01:38:47;;;;;;;50.75;13.60;;;;;;;;;;5093982;28;20172;-64
2022/01/12 01:41:14;;;;;;;72.90;14.37;;;;;;;;;;5093857;28;20171;-63
2022/01/12 01:44:06;;;;;;;72.80;13.25;;;;;;;;;;5093727;28;20758;-63
2022/01/12 01:54:42;;;;;;;23.58;12.25;;;;;;;;;;5093891;28;20174;-63
2022/01/12 01:57:08;;;;;;;16.40;12.57;;;;;;;;;;5093628;28;20163;-63
2022/01/12 01:59:34;;;;;;;41.65;11.77;;;;;;;;;;5093470;28;20409;-63
2022/01/12 02:02:00;;;;;;;49.35;14.15;;;;;;;;;;5093436;28;20164;-63
2022/01/12 02:04:26;;;;;;;20.35;11.45;;;;;;;;;;5093342;28;20668;-65
2022/01/12 02:06:54;;;;;;;19.47;11.63;;;;;;;;;;5093871;28;20175;-62
2022/01/12 02:09:20;;;;;;;22.65;11.75;;;;;;;;;;5093516;28;20382;-63
2022/01/12 02:11:50;;;;;;;37.67;12.03;;;;;;;;;;5093597;28;20246;-62
2022/01/12 02:14:16;;;;;;;68.13;12.55;;;;;;;;;;5093445;28;20788;-62
2022/01/12 02:16:52;;;;;;;13.23;11.00;;;;;;;;;;5093237;28;20219;-63
2022/01/12 02:35:56;;;;;;;13.63;10.80;;;;;;;;;;5097292;28;20179;-64
2022/01/12 02:41:07;;;;;;;65.45;12.98;;;;;;;;;;5097152;28;20182;-63
2022/01/12 02:51:33;;;;;;;51.13;11.38;;;;;;;;;;5096973;28;20604;-65
2022/01/12 02:54:00;;;;;;;28.80;13.15;;;;;;;;;;5096974;28;20167;-62
2022/01/12 02:56:34;;;;;;;61.78;12.25;;;;;;;;;;5096877;28;20246;-64
2022/01/12 02:59:01;;;;;;;13.55;11.48;;;;;;;;;;5095569;28;20159;-62
2022/01/12 03:04:05;;;;;;;16.17;11.60;;;;;;;;;;5096658;28;20166;-62
2022/01/12 03:06:35;;;;;;;81.65;14.32;;;;;;;;;;5095303;28;20291;-63
2022/01/12 03:09:03;;;;;;;47.67;14.60;;;;;;;;;;5096605;28;20166;-62
2022/01/12 03:11:29;;;;;;;24.60;12.90;;;;;;;;;;5096752;28;20241;-62
2022/01/12 03:13:55;;;;;;;22.00;12.43;;;;;;;;;;5096489;28;20167;-63
2022/01/12 03:16:24;;;;;;;17.48;11.88;;;;;;;;;;5094962;28;20219;-65
2022/01/12 03:18:51;;;;;;;13.63;10.93;;;;;;;;;;5096370;28;20193;-62
2022/01/12 03:21:20;;;;;;;14.70;11.07;;;;;;;;;;5096386;28;20584;-63
2022/01/12 03:23:46;;;;;;;14.30;11.65;;;;;;;;;;5096322;28;20250;-63
2022/01/12 03:26:12;;;;;;;13.20;11.00;;;;;;;;;;5096111;28;20718;-64
2022/01/12 03:28:39;;;;;;;13.80;10.70;;;;;;;;;;5096234;28;20630;-62
2022/01/12 03:31:16;;;;;;;13.50;10.88;;;;;;;;;;5096204;28;20212;-63
2022/01/12 03:36:24;;;;;;;30.57;13.17;;;;;;;;;;5096454;28;20657;-62
2022/01/12 03:38:54;;;;;;;16.73;11.68;;;;;;;;;;5094570;28;20420;-62
2022/01/12 03:41:21;;;;;;;18.90;11.70;;;;;;;;;;5096035;28;20164;-66
2022/01/12 03:43:47;;;;;;;15.52;11.38;;;;;;;;;;5095994;28;20168;-61
2022/01/12 03:46:15;;;;;;;35.05;12.00;;;;;;;;;;5095893;28;20239;-66
2022/01/12 03:48:41;;;;;;;125.40;14.30;;;;;;;;;;5095959;28;20292;-63
2022/01/12 03:51:08;;;;;;;91.25;13.25;;;;;;;;;;5095799;28;20167;-65
2022/01/12 03:53:34;;;;;;;29.77;11.50;;;;;;;;;;5095698;28;20167;-66
2022/01/12 03:56:00;;;;;;;68.27;12.90;;;;;;;;;;5095737;28;20178;-61
2022/01/12 03:58:26;;;;;;;21.63;12.27;;;;;;;;;;5095878;28;20488;-60
2022/01/12 04:00:52;;;;;;;14.85;11.45;;;;;;;;;;5095969;28;20265;-62
2022/01/12 04:03:18;;;;;;;19.10;12.40;;;;;;;;;;5095640;28;20202;-61
2022/01/12 04:08:28;;;;;;;17.73;12.85;;;;;;;;;;5095720;28;20687;-61
2022/01/12 04:11:00;;;;;;;18.65;14.25;;;;;;;;;;5095906;28;20178;-66
2022/01/12 04:13:27;;;;;;;33.95;12.27;;;;;;;;;;5095639;28;20163;-66
2022/01/12 04:15:56;;;;;;;14.65;11.63;;;;;;;;;;5095287;28;20246;-65
2022/01/12 04:18:22;;;;;;;16.55;12.48;;;;;;;;;;5095265;28;20610;-61
2022/01/12 04:20:50;;;;;;;15.27;11.85;;;;;;;;;;5095246;28;20544;-61
2022/01/12 04:23:18;;;;;;;18.70;13.52;;;;;;;;;;5095256;28;20538;-61
2022/01/12 04:25:56;;;;;;;18.20;11.50;;;;;;;;;;5095077;28;20199;-62
2022/01/12 04:28:22;;;;;;;17.38;12.30;;;;;;;;;;5095381;28;20352;-61
2022/01/12 04:30:49;;;;;;;20.52;12.50;;;;;;;;;;5094956;28;20167;-61
2022/01/12 04:33:16;;;;;;;17.25;12.10;;;;;;;;;;5095155;28;20487;-61
2022/01/12 04:35:48;;;;;;;19.63;12.82;;;;;;;;;;5095132;28;20171;-61
2022/01/12 04:38:14;;;;;;;18.50;12.65;;;;;;;;;;5094835;28;20170;-61
2022/01/12 04:40:41;;;;;;;13.77;11.18;;;;;;;;;;5094741;28;20240;-61
2022/01/12 04:43:08;;;;;;;16.90;11.55;;;;;;;;;;5094853;28;20191;-61
2022/01/12 04:48:20;;;;;;;16.42;12.10;;;;;;;;;;5095021;28;20605;-61
2022/01/12 04:50:47;;;;;;;15.63;11.00;;;;;;;;;;5092817;28;20183;-61
2022/01/12 04:53:14;;;;;;;15.25;11.60;;;;;;;;;;5094555;28;20246;-61
2022/01/12 04:55:40;;;;;;;17.42;11.05;;;;;;;;;;5093246;28;20621;-62
2022/01/12 04:58:07;;;;;;;13.48;10.65;;;;;;;;;;5094460;28;20252;-61
2022/01/12 05:00:33;;;;;;;15.07;11.25;;;;;;;;;;5094418;28;20172;-61
2022/01/12 05:13:45;;;;;;;12.30;9.70;;;;;;;;;;5094430;28;20174;-61
2022/01/12 05:16:11;;;;;;;18.85;11.48;;;;;;;;;;5094106;28;20226;-61
2022/01/12 05:18:38;;;;;;;13.27;11.07;;;;;;;;;;5094398;28;20177;-61
2022/01/12 05:21:04;;;;;;;14.13;10.48;;;;;;;;;;5094187;28;20214;-61
2022/01/12 05:23:31;;;;;;;16.65;10.90;;;;;;;;;;5094042;28;20168;-62
2022/01/12 05:25:57;;;;;;;14.93;11.82;;;;;;;;;;5093960;28;20238;-61
2022/01/12 05:28:23;;;;;;;14.63;11.10;;;;;;;;;;5094016;28;20167;-61
2022/01/12 05:30:50;;;;;;;10.52;9.45;;;;;;;;;;5093935;28;20163;-61
2022/01/12 05:33:16;;;;;;;16.20;9.43;;;;;;;;;;5093989;28;20532;-61
2022/01/12 05:35:43;;;;;;;10.48;9.20;;;;;;;;;;5093883;28;20167;-61
2022/01/12 05:38:13;;;;;;;9.35;8.43;;;;;;;;;;5094004;28;20248;-61
2022/01/12 05:40:40;;;;;;;11.70;9.40;;;;;;;;;;5093614;28;20622;-61
2022/01/12 05:43:06;;;;;;;11.57;9.63;;;;;;;;;;5093732;28;20175;-61
2022/01/12 05:45:34;;;;;;;13.05;10.10;;;;;;;;;;5093866;28;20213;-62
2022/01/12 05:50:36;;;;;;;25.75;12.90;;;;;;;;;;5093911;28;20216;-65
2022/01/12 05:53:02;;;;;;;19.33;10.52;;;;;;;;;;5093883;28;20546;-61
2022/01/12 05:55:28;;;;;;;13.23;10.20;;;;;;;;;;5093624;28;20179;-61
2022/01/12 05:57:54;;;;;;;20.13;12.65;;;;;;;;;;5093837;28;20182;-60
2022/01/12 06:00:21;;;;;;;13.77;10.73;;;;;;;;;;5093475;28;20190;-61
2022/01/12 06:02:47;;;;;;;12.10;10.20;;;;;;;;;;5092792;28;20459;-62
2022/01/12 06:05:14;;;;;;;18.67;12.93;;;;;;;;;;5093404;28;20272;-62
2022/01/12 06:07:41;;;;;;;12.55;10.60;;;;;;;;;;5093448;28;20159;-62
2022/01/12 06:10:07;;;;;;;14.10;10.23;;;;;;;;;;5093405;28;20268;-61
2022/01/12 06:12:33;;;;;;;15.60;10.75;;;;;;;;;;5093430;28;20199;-61
2022/01/12 06:14:59;;;;;;;13.00;10.98;;;;;;;;;;5093373;28;20166;-62
2022/01/12 06:17:25;;;;;;;11.55;10.35;;;;;;;;;;5093123;28;20226;-62
2022/01/12 06:19:51;;;;;;;14.13;10.70;;;;;;;;;;5093355;28;20199;-62
2022/01/12 06:22:17;;;;;;;10.67;9.57;;;;;;;;;;5093560;28;20246;-61
2022/01/12 06:24:43;;;;;;;11.50;9.48;;;;;;;;;;5093226;28;20774;-63
2022/01/12 06:27:14;;;;;;;10.77;9.60;;;;;;;;;;5093288;28;20169;-62
2022/01/12 06:29:43;;;;;;;12.82;10.10;;;;;;;;;;5093312;28;20393;-63
2022/01/12 06:32:09;;;;;;;10.50;9.50;;;;;;;;;;5093342;28;20237;-63
2022/01/12 06:34:36;;;;;;;9.32;7.97;;;;;;;;;;5093273;28;20152;-62
2022/01/12 06:37:02;;;;;;;10.02;9.02;;;;;;;;;;5093476;28;20175;-61
2022/01/12 06:39:28;;;;;;;9.93;8.98;;;;;;;;;;5093348;28;20169;-62
2022/01/12 06:41:55;;;;;;;12.60;9.32;;;;;;;;;;5093312;28;20174;-66
2022/01/12 06:44:22;;;;;;;93.55;14.05;;;;;;;;;;5092038;28;20208;-63
2022/01/12 06:46:48;;;;;;;21.50;11.48;;;;;;;;;;5093160;28;20207;-62
2022/01/12 06:49:16;;;;;;;21.35;11.35;;;;;;;;;;5093203;28;20212;-63
2022/01/12 06:51:42;;;;;;;35.85;12.77;;;;;;;;;;5093418;28;20171;-63
2022/01/12 06:54:08;;;;;;;88.03;14.82;;;;;;;;;;5093140;28;20167;-62
2022/01/12 06:56:34;;;;;;;51.75;16.65;;;;;;;;;;5093083;28;20163;-62
2022/01/12 06:59:01;;;;;;;36.28;15.73;;;;;;;;;;5093353;28;20250;-61
2022/01/12 07:01:27;;;;;;;69.03;14.82;;;;;;;;;;5093602;28;20174;-62
2022/01/12 07:03:53;;;;;;;41.83;14.07;;;;;;;;;;5093441;28;20203;-65
2022/01/12 07:06:19;;;;;;;37.75;13.95;;;;;;;;;;5092981;28;20245;-64
2022/01/12 07:08:45;;;;;;;17.05;13.20;;;;;;;;;;5093014;28;20209;-61
2022/01/12 07:11:11;;;;;;;25.52;13.02;;;;;;;;;;5092982;28;20543;-62
2022/01/12 07:13:37;;;;;;;27.80;14.43;;;;;;;;;;5094030;28;20176;-61
2022/01/12 07:16:03;;;;;;;18.35;12.30;;;;;;;;;;5096435;28;20223;-62
2022/01/12 07:18:30;;;;;;;28.60;17.80;;;;;;;;;;5096746;28;20175;-62
2022/01/12 07:20:56;;;;;;;45.08;12.68;;;;;;;;;;5096439;28;20179;-61
2022/01/12 07:23:23;;;;;;;15.52;11.10;;;;;;;;;;5095176;28;20186;-62
2022/01/12 07:25:49;;;;;;;12.52;10.05;;;;;;;;;;5096577;28;20261;-62
2022/01/12 07:28:15;;;;;;;14.18;11.35;;;;;;;;;;5095132;28;20171;-61
2022/01/12 07:30:41;;;;;;;11.95;9.93;;;;;;;;;;5096333;28;20177;-63
2022/01/12 07:33:07;;;;;;;16.10;10.50;;;;;;;;;;5096456;28;20186;-64
2022/01/12 07:35:33;;;;;;;13.00;10.70;;;;;;;;;;5096053;28;20178;-67
2022/01/12 07:37:59;;;;;;;126.90;14.87;;;;;;;;;;5094763;28;20542;-65
2022/01/12 07:40:25;;;;;;;13.63;10.70;;;;;;;;;;5096088;28;20417;-66
2022/01/12 07:42:51;;;;;;;15.82;11.88;;;;;;;;;;5096304;28;20175;-71
2022/01/12 07:45:18;;;;;;;17.70;12.05;;;;;;;;;;5095995;28;20688;-68
2022/01/12 07:47:44;;;;;;;18.15;12.95;;;;;;;;;;5095993;28;20641;-67
2022/01/12 07:50:10;;;;;;;16.48;12.95;;;;;;;;;;5095895;28;20168;-71
2022/01/12 07:52:36;;;;;;;55.03;29.98;;;;;;;;;;5095898;28;20167;-68
2022/01/12 07:55:03;;;;;;;21.23;13.25;;;;;;;;;;5095955;28;20610;-68
2022/01/12 07:57:29;;;;;;;31.48;12.70;;;;;;;;;;5095813;28;20203;-70
2022/01/12 07:59:55;;;;;;;27.25;16.92;;;;;;;;;;5095862;28;20171;-70
2022/01/12 08:02:21;;;;;;;34.00;18.10;;;;;;;;;;5095860;28;20262;-71
2022/01/12 08:04:47;;;;;;;21.35;14.02;;;;;;;;;;5095629;28;20259;-70
2022/01/12 08:07:13;;;;;;;71.63;19.60;;;;;;;;;;5095655;28;20259;-76
2022/01/12 08:09:40;;;;;;;28.63;19.90;;;;;;;;;;5095594;28;20442;-70
2022/01/12 08:12:07;;;;;;;21.90;15.05;;;;;;;;;;5095799;28;20179;-70
2022/01/12 08:14:33;;;;;;;20.15;11.93;;;;;;;;;;5095852;28;20167;-73
2022/01/12 08:16:59;;;;;;;62.00;13.47;;;;;;;;;;5095279;28;20229;-71
2022/01/12 08:19:26;;;;;;;17.23;13.73;;;;;;;;;;5095219;28;20782;-72
2022/01/12 08:21:52;;;;;;;34.72;13.35;;;;;;;;;;5095360;28;20155;-71
2022/01/12 08:24:19;;;;;;;24.43;15.07;;;;;;;;;;5095175;28;20250;-73
2022/01/12 08:26:45;;;;;;;26.33;13.93;;;;;;;;;;5094489;28;20514;-70
2022/01/12 08:29:14;;;;;;;44.33;14.02;;;;;;;;;;5095243;28;20155;-71
2022/01/12 08:31:41;;;;;;;23.27;13.57;;;;;;;;;;5093942;28;20179;-73
2022/01/12 08:34:08;;;;;;;16.73;11.90;;;;;;;;;;5095243;28;20622;-67
2022/01/12 08:36:34;;;;;;;25.17;16.00;;;;;;;;;;5095306;28;20266;-67
2022/01/12 08:39:02;;;;;;;22.20;15.43;;;;;;;;;;5095033;28;20167;-69
2022/01/12 08:41:28;;;;;;;16.85;12.35;;;;;;;;;;5095059;28;20167;-67
2022/01/12 08:43:54;;;;;;;19.45;14.10;;;;;;;;;;5095008;28;20510;-75
2022/01/12 08:46:20;;;;;;;17.35;12.10;;;;;;;;;;5094807;28;20206;-71
2022/01/12 08:48:46;;;;;;;14.52;11.60;;;;;;;;;;5094740;28;20167;-69
2022/01/12 08:51:12;;;;;;;17.80;12.70;;;;;;;;;;5094809;28;20276;-76
2022/01/12 08:53:38;;;;;;;22.08;13.80;;;;;;;;;;5094732;28;20175;-66
2022/01/12 08:56:05;;;;;;;18.90;13.00;;;;;;;;;;5094630;28;20262;-65
2022/01/12 08:58:30;;;;;;;20.88;10.60;;;;;;;;;;5094599;28;20163;-66
2022/01/12 09:01:00;;;;;;;12.63;11.17;;;;;;;;;;5094597;28;20629;-67
2022/01/12 09:03:26;;;;;;;10.60;9.50;;;;;;;;;;5094508;28;20397;-67
2022/01/12 09:05:52;;;;;;;14.27;10.48;;;;;;;;;;5094347;28;20217;-65
2022/01/12 09:08:18;;;;;;;11.68;8.85;;;;;;;;;;5094681;28;20178;-66
2022/01/12 09:10:44;;;;;;;13.02;10.68;;;;;;;;;;5094442;28;20209;-68
2022/01/12 09:13:10;;;;;;;18.43;11.70;;;;;;;;;;5094314;28;20553;-67
2022/01/12 09:15:36;;;;;;;13.83;11.07;;;;;;;;;;5094056;28;20454;-66
2022/01/12 09:18:02;;;;;;;12.43;11.05;;;;;;;;;;5094160;28;20394;-64
2022/01/12 09:20:28;;;;;;;17.58;12.50;;;;;;;;;;5094122;28;20163;-70
2022/01/12 09:22:55;;;;;;;27.35;10.73;;;;;;;;;;5094069;28;20214;-66
2022/01/12 09:25:21;;;;;;;11.93;10.52;;;;;;;;;;5093996;28;20533;-66
2022/01/12 09:27:47;;;;;;;11.10;9.93;;;;;;;;;;5094073;28;20163;-67
2022/01/12 09:30:14;;;;;;;14.55;12.32;;;;;;;;;;5094047;28;20224;-66
2022/01/12 09:32:40;;;;;;;17.63;13.02;;;;;;;;;;5093978;28;20167;-66
2022/01/12 09:35:07;;;;;;;15.48;11.63;;;;;;;;;;5093901;28;20181;-67
2022/01/12 09:37:33;;;;;;;22.35;12.10;;;;;;;;;;5093787;28;20614;-68
2022/01/12 09:39:58;;;;;;;12.75;11.20;;;;;;;;;;5093964;28;20178;-68
2022/01/12 09:42:24;;;;;;;14.10;10.80;;;;;;;;;;5093925;28;20238;-68
2022/01/12 09:44:51;;;;;;;12.10;10.80;;;;;;;;;;5093844;28;20406;-68
2022/01/12 09:47:17;;;;;;;10.93;10.05;;;;;;;;;;5093784;28;20394;-68
2022/01/12 09:49:44;;;;;;;11.85;10.00;;;;;;;;;;5093811;28;20637;-68
2022/01/12 09:52:10;;;;;;;14.35;12.48;;;;;;;;;;5093714;28;20163;-68
2022/01/12 09:54:37;;;;;;;11.38;10.20;;;;;;;;;;5092837;28;20178;-68
2022/01/12 09:57:03;;;;;;;13.23;10.73;;;;;;;;;;5093660;28;20167;-68
2022/01/12 09:59:30;;;;;;;12.48;11.07;;;;;;;;;;5093656;28;20171;-69
2022/01/12 10:01:56;;;;;;;16.23;12.52;;;;;;;;;;5093614;28;20208;-68
2022/01/12 10:04:24;;;;;;;12.57;11.38;;;;;;;;;;5093933;28;20304;-68
2022/01/12 10:06:52;;;;;;;16.85;13.10;;;;;;;;;;5093450;28;20222;-70
2022/01/12 10:09:22;;;;;;;15.32;12.43;;;;;;;;;;5092293;28;20691;-68
2022/01/12 10:11:52;;;;;;;13.95;12.18;;;;;;;;;;5093740;28;20221;-67
2022/01/12 10:14:18;;;;;;;16.65;12.85;;;;;;;;;;5093497;28;20163;-67
2022/01/12 10:16:54;;;;;;;15.75;12.75;;;;;;;;;;5093382;28;20214;-68
2022/01/12 10:19:28;;;;;;;17.98;13.45;;;;;;;;;;5093482;28;20629;-67
2022/01/12 10:21:54;;;;;;;28.25;17.17;;;;;;;;;;5093416;28;20250;-67
2022/01/12 10:24:20;;;;;;;19.52;14.38;;;;;;;;;;5093330;28;20273;-68
2022/01/12 10:26:47;;;;;;;22.27;15.93;;;;;;;;;;5093691;28;20214;-67
2022/01/12 10:29:14;;;;;;;11.15;10.02;;;;;;;;;;5093654;28;20257;-69
2022/01/12 10:31:43;;;;;;;12.60;11.35;;;;;;;;;;5093442;28;20167;-65
2022/01/12 10:34:09;;;;;;;11.43;10.32;;;;;;;;;;5093361;28;20167;-67
2022/01/12 10:36:39;;;;;;;17.10;13.97;;;;;;;;;;5092060;28;20203;-68
2022/01/12 10:39:09;;;;;;;16.30;14.60;;;;;;;;;;5092117;28;20895;-69
2022/01/12 10:41:35;;;;;;;15.27;13.77;;;;;;;;;;5093544;28;20421;-68
2022/01/12 10:44:02;;;;;;;14.77;13.47;;;;;;;;;;5093217;28;20408;-68
2022/01/12 10:46:29;;;;;;;13.27;12.07;;;;;;;;;;5093186;28;20467;-68
2022/01/12 10:48:55;;;;;;;12.57;11.50;;;;;;;;;;5094731;28;20393;-68
2022/01/12 10:51:25;;;;;;;11.17;10.27;;;;;;;;;;5097071;28;20409;-68
2022/01/12 10:53:55;;;;;;;11.40;10.47;;;;;;;;;;5097010;28;20435;-65
2022/01/12 10:56:23;;;;;;;10.90;9.87;;;;;;;;;;5097254;28;20476;-69
2022/01/12 10:58:50;;;;;;;10.80;10.00;;;;;;;;;;5096860;28;20762;-66
2022/01/12 11:01:18;;;;;;;12.20;10.80;;;;;;;;;;5096796;28;20480;-66
2022/01/12 11:03:44;;;;;;;11.33;10.53;;;;;;;;;;5097014;28;20466;-68
2022/01/12 11:06:10;;;;;;;11.97;11.03;;;;;;;;;;5096660;28;20465;-69
2022/01/12 11:08:37;;;;;;;12.60;11.63;;;;;;;;;;5096676;28;20899;-68
2022/01/12 11:11:07;;;;;;;13.30;12.20;;;;;;;;;;5096842;28;20443;-69
2022/01/12 11:13:33;;;;;;;12.70;11.60;;;;;;;;;;5096620;28;20856;-69
2022/01/12 11:16:00;;;;;;;13.27;12.07;;;;;;;;;;5096435;28;20452;-68
2022/01/12 11:18:27;;;;;;;14.30;12.80;;;;;;;;;;5096709;28;20489;-68
2022/01/12 11:20:56;;;;;;;12.60;11.60;;;;;;;;;;5096411;28;20398;-67
2022/01/12 11:23:32;;;;;;;11.80;10.90;;;;;;;;;;5096399;28;20432;-67
2022/01/12 11:25:58;;;;;;;17.40;15.33;;;;;;;;;;5096201;28;20460;-68
2022/01/12 11:28:28;;;;;;;14.93;12.67;;;;;;;;;;5096483;28;20972;-68
2022/01/12 11:30:57;;;;;;;12.40;11.20;;;;;;;;;;5096452;28;20763;-68
2022/01/12 11:33:34;;;;;;;11.70;10.70;;;;;;;;;;5096155;28;20472;-66
2022/01/12 11:36:20;;;;;;;14.57;13.07;;;;;;;;;;5096081;28;20390;-66
2022/01/12 11:38:48;;;;;;;14.03;12.73;;;;;;;;;;5096028;28;20436;-67
2022/01/12 11:41:28;;;;;;;13.37;11.97;;;;;;;;;;5095863;28;20365;-67
2022/01/12 11:43:55;;;;;;;13.43;11.90;;;;;;;;;;5095907;28;20388;-68
2022/01/12 11:46:23;;;;;;;13.17;11.77;;;;;;;;;;5095801;28;20439;-66
2022/01/12 11:48:48;;;;;;;12.25;11.07;;;;;;;;;;5095771;28;20547;-67
2022/01/12 11:51:16;;;;;;;13.80;12.37;;;;;;;;;;5095805;28;20212;-65
2022/01/12 11:53:46;;;;;;;12.15;10.93;;;;;;;;;;5095816;28;20867;-65
2022/01/12 11:56:18;;;;;;;12.20;11.10;;;;;;;;;;5095765;28;20175;-67
2022/01/12 11:58:55;;;;;;;12.37;11.20;;;;;;;;;;5095692;28;20468;-69
2022/01/12 12:01:22;;;;;;;11.10;10.13;;;;;;;;;;5095679;28;20416;-67
2022/01/12 12:03:58;;;;;;;11.70;10.70;;;;;;;;;;5095632;28;20506;-66
2022/01/12 12:06:24;;;;;;;9.63;8.93;;;;;;;;;;5095577;28;20543;-68
2022/01/12 12:09:05;;;;;;;9.00;8.50;;;;;;;;;;5095707;28;20468;-68
2022/01/12 12:11:33;;;;;;;9.03;8.53;;;;;;;;;;5095888;28;20413;-68
2022/01/12 12:13:59;;;;;;;8.67;8.17;;;;;;;;;;5095574;28;20412;-68
2022/01/12 12:16:26;;;;;;;7.67;7.27;;;;;;;;;;5095195;28;20457;-68
2022/01/12 12:18:53;;;;;;;8.50;8.00;;;;;;;;;;5095415;28;20397;-69
2022/01/12 12:21:19;;;;;;;8.67;8.07;;;;;;;;;;5095664;28;20398;-69
2022/01/12 12:23:46;;;;;;;8.70;8.20;;;;;;;;;;5095403;28;20810;-68
2022/01/12 12:26:13;;;;;;;9.83;9.13;;;;;;;;;;5095319;28;20510;-68
2022/01/12 12:28:39;;;;;;;9.50;8.90;;;;;;;;;;5095358;28;20399;-67
2022/01/12 12:31:06;;;;;;;10.00;9.00;;;;;;;;;;5095138;28;20405;-68
2022/01/12 12:33:34;;;;;;;9.83;9.13;;;;;;;;;;5095173;28;20394;-67
2022/01/12 12:36:00;;;;;;;9.57;8.90;;;;;;;;;;5095362;28;20496;-68
2022/01/12 12:38:26;;;;;;;7.17;6.77;;;;;;;;;;5095077;28;20400;-68
2022/01/12 12:40:57;;;;;;;7.67;7.17;;;;;;;;;;5095020;28;20393;-69
2022/01/12 12:43:26;;;;;;;5.80;5.60;;;;;;;;;;5095026;28;20482;-69
2022/01/12 12:45:56;;;;;;;6.77;6.47;;;;;;;;;;5094853;28;20449;-69
2022/01/12 12:48:24;;;;;;;6.87;6.43;;;;;;;;;;5094846;28;20416;-67
2022/01/12 12:51:00;;;;;;;7.40;7.00;;;;;;;;;;5094842;28;20397;-67
2022/01/12 12:53:27;;;;;;;8.30;7.70;;;;;;;;;;5094746;28;20416;-67
2022/01/12 12:55:54;;;;;;;9.10;8.40;;;;;;;;;;5094935;28;20478;-67
2022/01/12 12:58:20;;;;;;;12.30;8.20;;;;;;;;;;5094706;28;20464;-68
2022/01/12 13:00:46;;;;;;;9.90;9.10;;;;;;;;;;5094665;28;20879;-67
2022/01/12 13:03:11;;;;;;;10.53;9.63;;;;;;;;;;5094478;28;20501;-66
2022/01/12 13:05:44;;;;;;;10.53;9.63;;;;;;;;;;5094377;28;20464;-67
2022/01/12 13:08:11;;;;;;;9.67;8.97;;;;;;;;;;5094413;28;20756;-67
2022/01/12 13:10:38;;;;;;;10.30;9.40;;;;;;;;;;5094332;28;20437;-67
2022/01/12 13:13:05;;;;;;;12.03;10.93;;;;;;;;;;5094063;28;20398;-66
2022/01/12 13:15:43;;;;;;;11.87;10.47;;;;;;;;;;5094346;28;20408;-66
2022/01/12 13:18:11;;;;;;;11.87;10.77;;;;;;;;;;5094514;28;20409;-66
2022/01/12 13:23:24;;;;;;;12.17;11.07;;;;;;;;;;5094221;28;20501;-66
2022/01/12 13:25:52;;;;;;;11.63;10.70;;;;;;;;;;5094085;28;20453;-66
2022/01/12 13:28:19;;;;;;;11.33;10.37;;;;;;;;;;5094159;28;20402;-67
2022/01/12 13:31:08;;;;;;;10.70;9.80;;;;;;;;;;5094036;28;20440;-66
2022/01/12 13:33:34;;;;;;;12.83;10.80;;;;;;;;;;5086025;28;20453;-67
2022/01/12 13:36:14;;;;;;;12.77;10.70;;;;;;;;;;5094178;28;20907;-66
2022/01/12 13:38:40;;;;;;;11.37;10.37;;;;;;;;;;5094191;28;20488;-66
2022/01/12 13:41:10;;;;;;;13.67;11.10;;;;;;;;;;5093951;28;20435;-66
2022/01/12 13:43:37;;;;;;;13.33;11.60;;;;;;;;;;5093917;28;20402;-67
2022/01/12 13:46:11;;;;;;;13.30;10.97;;;;;;;;;;5093293;28;20452;-66
2022/01/12 13:48:40;;;;;;;14.53;12.73;;;;;;;;;;5093522;28;20463;-66
2022/01/12 13:51:06;;;;;;;13.23;12.03;;;;;;;;;;5093713;28;20393;-64
2022/01/12 13:53:37;;;;;;;14.70;13.10;;;;;;;;;;5093736;28;20393;-65
2022/01/12 13:56:04;;;;;;;15.17;13.37;;;;;;;;;;5093693;28;20394;-67
2022/01/12 13:58:31;;;;;;;15.53;13.93;;;;;;;;;;5093673;28;20400;-66
2022/01/12 14:01:05;;;;;;;14.63;13.20;;;;;;;;;;5093487;28;20393;-67
2022/01/12 14:03:38;;;;;;;13.93;12.53;;;;;;;;;;5093525;28;20389;-67
2022/01/12 14:06:13;;;;;;;15.50;12.90;;;;;;;;;;5093471;28;20467;-67
2022/01/12 14:08:51;;;;;;;15.00;13.50;;;;;;;;;;5093580;28;20394;-68
2022/01/12 14:11:17;;;;;;;15.00;13.40;;;;;;;;;;5093488;28;20389;-67
2022/01/12 14:13:43;;;;;;;14.47;12.87;;;;;;;;;;5093537;28;20383;-67
2022/01/12 14:16:10;;;;;;;12.80;11.60;;;;;;;;;;5093326;28;20448;-67
2022/01/12 14:18:36;;;;;;;14.90;13.37;;;;;;;;;;5093531;28;20488;-68
2022/01/12 14:21:12;;;;;;;13.33;12.03;;;;;;;;;;5093451;28;20496;-67
2022/01/12 14:23:38;;;;;;;14.87;13.37;;;;;;;;;;5094683;28;20963;-67
2022/01/12 14:26:04;;;;;;;15.93;13.33;;;;;;;;;;5097578;28;20559;-67
2022/01/12 14:28:31;;;;;;;12.70;11.50;;;;;;;;;;5097543;28;20395;-67
2022/01/12 14:30:58;;;;;;;13.57;12.27;;;;;;;;;;5097602;28;20828;-65
2022/01/12 14:33:24;;;;;;;12.10;10.90;;;;;;;;;;5097128;28;20892;-66
2022/01/12 14:35:50;;;;;;;13.40;12.10;;;;;;;;;;5097275;28;20393;-66
2022/01/12 14:38:16;;;;;;;14.37;12.13;;;;;;;;;;5097494;28;20421;-65
2022/01/12 14:40:43;;;;;;;12.77;11.47;;;;;;;;;;5097142;28;20872;-65
2022/01/12 14:43:09;;;;;;;13.20;11.87;;;;;;;;;;5097188;28;20383;-65
2022/01/12 14:45:38;;;;;;;12.83;11.57;;;;;;;;;;5097148;28;20790;-66
2022/01/12 14:48:08;;;;;;;21.07;12.70;;;;;;;;;;5097230;28;20394;-65
2022/01/12 14:50:35;;;;;;;13.37;12.00;;;;;;;;;;5097038;28;20480;-65
2022/01/12 14:53:02;;;;;;;14.70;13.20;;;;;;;;;;5096850;28;20371;-66
2022/01/12 14:55:29;;;;;;;14.40;12.90;;;;;;;;;;5096887;28;20393;-65
2022/01/12 14:57:54;;;;;;;14.37;12.70;;;;;;;;;;5096790;28;20389;-65
2022/01/12 15:00:24;;;;;;;13.37;11.97;;;;;;;;;;5096811;28;20470;-65
2022/01/12 15:02:54;;;;;;;19.13;15.03;;;;;;;;;;5097049;28;20385;-65
2022/01/12 15:05:21;;;;;;;15.00;13.40;;;;;;;;;;5096664;28;20530;-65
2022/01/12 15:07:47;;;;;;;17.50;14.70;;;;;;;;;;5096943;28;20397;-65
2022/01/12 15:10:13;;;;;;;15.47;13.83;;;;;;;;;;5096784;28;20462;-65
2022/01/12 15:12:40;;;;;;;16.47;13.97;;;;;;;;;;5096935;28;20412;-65
2022/01/12 15:15:08;;;;;;;16.17;14.23;;;;;;;;;;5096898;28;20409;-65
2022/01/12 15:17:35;;;;;;;17.20;14.60;;;;;;;;;;5095141;28;20226;-65
2022/01/12 15:20:03;;;;;;;16.40;14.57;;;;;;;;;;5095208;28;20175;-64
2022/01/12 15:22:29;;;;;;;18.33;14.20;;;;;;;;;;5095135;28;20246;-64
2022/01/12 15:24:55;;;;;;;18.77;16.37;;;;;;;;;;5095257;28;20498;-64
2022/01/12 15:27:21;;;;;;;20.90;16.37;;;;;;;;;;5095167;28;20377;-65
2022/01/12 15:29:47;;;;;;;18.67;15.87;;;;;;;;;;5095267;28;20898;-64
2022/01/12 15:32:14;;;;;;;20.58;15.60;;;;;;;;;;5094774;28;20372;-64
2022/01/12 15:34:40;;;;;;;18.00;16.10;;;;;;;;;;5094649;28;20261;-65
2022/01/12 15:37:06;;;;;;;20.55;16.30;;;;;;;;;;5094987;28;20171;-64
2022/01/12 15:39:32;;;;;;;23.03;17.03;;;;;;;;;;5095087;28;20175;-66
2022/01/12 15:41:58;;;;;;;24.02;16.40;;;;;;;;;;5094934;28;20391;-66